Weather at Berlin-Schönefeld Airport [CLOSED]

Public forecast

Using degrees Celsius for public forecast. Weather courtesy of forecast.io.

Closest aviation weather report (METAR) to Berlin-Schönefeld Airport

Closest report is Berlin Brandenburg Airport, 1.3 nm (2.5 km) SW.

2023/02/05 16:20 (retrieved 21 minutes ago)

EDDB 051620Z AUTO 10004KT CAVOK M01/M05 Q1038 NOSIG

Closest aviation forecast (TAF) to Berlin-Schönefeld Airport

Closest forecast is Berlin Brandenburg Airport, 1.3 nm (2.5 km) SW.

2023/02/05 12:30 (retrieved 4 hours ago)

TAF EDDB 051100Z 0512/0612 14004KT CAVOK PROB30 TEMPO 0606/0610 2000 -SN BKN004